Latest Weather Observations for Hughenden

IDQ60801

Issued at 1:35 pm EST Thursday 23 October 2014 (issued every 30 minutes, with the page automatically refreshed every 10 minutes)

About weather observations | Map of weather stations | Latest weather observations for QLD | Other Formats
Station Details ID: 030022 Name: HUGHENDEN AIRPORT Lat: -20.82 Lon: 144.23 Height: 316.4 m
Data from the previous 72 hours. | See also: Recent months at Hughenden
Date/Time
EST
Temp
°C
App
Temp
°C
Dew
Point
Rel
Hum
%
Delta-T
°C
Wind Press
QNH
hPa
Press
MSL
hPa
Rain
since 9 am
mm
Dir
 
Spd
km/h
Gust
km/h
Spd
kts
Gust
kts
23/01:30pm 31.8 24.7 3.8 17 14.6 E 30 48 16 26 1015.9 1014.0 0.0
23/01:25pm 32.5 25.5 4.3 17 14.9 E 30 48 16 26 1015.9 1014.0 0.0
23/01:00pm 31.8 24.7 3.8 17 14.6 ESE 30 43 16 23 1016.6 1014.7 0.0
23/12:52pm 32.5 25.5 4.3 17 14.9 ESE 30 48 16 26 1016.8 1014.8 0.0
23/12:30pm 32.1 25.1 4.0 17 14.8 E 30 44 16 24 1017.2 1015.2 0.0
23/12:01pm 32.1 25.1 4.0 17 14.7 E 30 48 16 26 1017.9 1016.0 0.0
23/12:00pm 31.3 24.7 4.2 18 14.2 E 28 41 15 22 1017.9 1016.0 0.0
23/11:50am 31.5 24.9 4.3 18 14.3 E 28 46 15 25 1018.0 1016.1 0.0
23/11:30am 30.5 24.1 5.0 20 13.5 SE 28 41 15 22 1018.4 1016.5 0.0
23/11:19am 30.9 24.1 5.3 20 13.6 E 30 50 16 27 1018.6 1016.7 0.0
23/11:00am 30.0 23.8 6.0 22 12.9 E 28 41 15 22 1018.9 1017.0 0.0
23/10:30am 29.4 23.3 6.7 24 12.3 ESE 28 39 15 21 1019.2 1017.3 0.0
23/10:00am 27.9 22.0 7.7 28 11.0 ENE 28 39 15 21 1019.5 1017.6 0.0
23/09:30am 26.6 22.0 9.5 34 9.6 ENE 24 33 13 18 1019.9 1018.0 0.0
23/09:00am 25.8 22.3 10.8 39 8.5 ENE 20 30 11 16 1020.3 1018.3 0.0
23/08:30am 24.9 20.4 11.5 43 7.7 ENE 26 35 14 19 1020.4 1018.5 0.0
23/08:00am 23.5 19.0 11.5 47 6.8 ENE 26 35 14 19 1020.3 1018.3 0.0
23/07:30am 22.1 18.8 11.5 51 6.0 ENE 20 30 11 16 1019.9 1018.0 0.0
23/07:00am 21.1 17.8 10.9 52 5.7 ENE 19 26 10 14 1019.5 1017.6 0.0
23/06:30am 19.9 17.6 10.3 54 5.3 ENE 13 17 7 9 1019.1 1017.2 0.0
23/06:00am 18.9 17.3 10.2 57 4.7 ENE 9 15 5 8 1018.8 1016.9 0.0
23/05:30am 18.6 17.0 8.8 53 5.2 NNE 7 9 4 5 1018.6 1016.7 0.0
23/05:00am 19.4 17.1 9.0 51 5.5 ENE 11 15 6 8 1018.3 1016.4 0.0
23/04:30am 19.6 17.3 8.9 50 5.7 ENE 11 13 6 7 1018.0 1016.1 0.0
23/04:00am 20.1 17.4 8.8 48 6.0 ENE 13 15 7 8 1017.9 1016.0 0.0
23/03:30am 20.9 19.2 8.5 45 6.6 NE 7 11 4 6 1018.1 1016.2 0.0
23/03:00am 21.4 20.0 8.7 44 6.8 N 6 9 3 5 1018.4 1016.5 0.0
23/02:30am 21.6 19.6 8.5 43 7.0 NNE 9 15 5 8 1018.3 1016.4 0.0
23/02:00am 22.2 18.9 8.0 40 7.5 NE 15 20 8 11 1018.3 1016.4 0.0
23/01:30am 22.8 18.6 8.1 39 7.9 NE 20 28 11 15 1018.6 1016.7 0.0
23/01:00am 22.8 18.7 6.1 34 8.6 NE 17 22 9 12 1018.8 1016.9 0.0
23/12:30am 23.8 20.5 6.6 33 9.0 NE 13 20 7 11 1018.7 1016.8 0.0
23/12:00am 23.5 19.5 2.9 26 10.0 E 13 17 7 9 1018.8 1016.9 0.0
 
Date/Time
EST
Temp
°C
App
Temp
°C
Dew
Point
Rel
Hum
%
Delta-T
°C
Wind Press
QNH
hPa
Press
MSL
hPa
Rain
since 9 am
mm
Dir
 
Spd
km/h
Gust
km/h
Spd
kts
Gust
kts
22/11:30pm 22.9 18.6 0.7 23 10.3 ENE 13 19 7 10 1018.7 1016.8 0.0
22/11:00pm 23.1 19.0 -0.4 21 10.7 ESE 11 13 6 7 1018.5 1016.6 0.0
22/10:30pm 23.6 19.1 -0.6 20 11.1 ESE 13 17 7 9 1018.6 1016.7 0.0
22/10:00pm 23.7 19.1 -1.3 19 11.3 ESE 13 15 7 8 1018.5 1016.6 0.0
22/09:30pm 24.3 19.6 -1.5 18 11.7 ESE 13 15 7 8 1018.3 1016.4 0.0
22/09:00pm 25.5 20.4 -2.1 16 12.4 ESE 15 19 8 10 1018.0 1016.1 0.0
22/08:30pm 26.0 21.3 -1.7 16 12.6 SE 13 17 7 9 1017.7 1015.8 0.0
22/08:00pm 27.0 21.5 -1.8 15 13.2 ESE 17 19 9 10 1017.3 1015.3 0.0
22/07:30pm 27.8 23.2 -1.2 15 13.5 ESE 13 17 7 9 1017.0 1015.0 0.0
22/07:00pm 29.5 23.9 0.2 15 14.2 E 19 26 10 14 1016.5 1014.6 0.0
22/06:30pm 30.0 23.8 -0.4 14 14.6 ESE 22 32 12 17 1016.3 1014.4 0.0
22/06:00pm 31.1 24.5 -0.5 13 15.3 E 24 37 13 20 1016.1 1014.2 0.0
22/05:30pm 31.8 25.1 -1.1 12 15.8 E 24 35 13 19 1015.8 1013.9 0.0
22/05:00pm 32.3 25.3 -0.7 12 16.0 ESE 26 33 14 18 1015.6 1013.7 0.0
22/04:30pm 32.7 25.7 -0.4 12 16.2 E 26 39 14 21 1015.6 1013.7 0.0
22/04:00pm 32.5 25.3 0.6 13 15.9 ESE 28 41 15 22 1015.7 1013.8 0.0
22/03:30pm 33.0 26.6 0.9 13 16.1 E 24 37 13 20 1015.7 1013.8 0.0
22/03:00pm 32.7 25.7 1.7 14 15.7 E 28 43 15 23 1016.0 1014.1 0.0
22/02:30pm 32.8 25.4 1.8 14 15.8 ESE 30 48 16 26 1016.4 1014.5 0.0
22/02:28pm 33.7 26.4 2.5 14 16.1 E 30 48 16 26 1016.4 1014.5 0.0
22/02:00pm 32.2 24.7 3.2 16 15.0 E 32 46 17 25 1016.8 1014.8 0.0
22/01:30pm 33.2 26.7 4.9 17 15.2 E 28 43 15 23 1017.3 1015.3 0.0
22/01:08pm 31.8 24.0 2.9 16 14.9 E 33 52 18 28 1017.7 1015.8 0.0
22/01:00pm 31.5 24.8 3.5 17 14.5 E 28 39 15 21 1017.8 1015.9 0.0
22/12:30pm 31.1 23.6 3.2 17 14.4 ENE 32 44 17 24 1018.3 1016.4 0.0
22/12:00pm 29.9 22.2 2.2 17 13.9 E 32 48 17 26 1018.9 1017.0 0.0
22/11:57am 30.9 23.7 3.0 17 14.3 E 30 48 16 26 1018.9 1017.0 0.0
22/11:30am 29.6 21.9 3.5 19 13.4 E 33 46 18 25 1019.5 1017.6 0.0
22/11:10am 28.6 21.5 5.5 23 12.2 E 32 50 17 27 1019.9 1018.0 0.0
22/11:00am 29.0 21.6 5.1 22 12.5 E 33 48 18 26 1020.1 1018.1 0.0
22/10:30am 28.4 21.5 6.5 25 11.7 E 32 44 17 24 1020.5 1018.6 0.0
22/10:00am 27.2 21.3 7.6 29 10.6 E 28 41 15 22 1020.8 1018.9 0.0
22/09:30am 26.0 19.5 8.9 34 9.4 E 33 43 18 23 1021.0 1019.1 0.0
22/09:00am 24.7 18.5 9.4 38 8.4 E 32 43 17 23 1021.1 1019.2 0.0
22/08:30am 23.4 17.4 10.1 43 7.4 ENE 32 43 17 23 1021.2 1019.3 0.0
22/08:00am 22.7 16.7 10.2 45 6.9 ENE 32 43 17 23 1021.2 1019.3 0.0
22/07:30am 21.6 15.7 10.4 49 6.2 E 32 44 17 24 1021.0 1019.1 0.0
22/07:00am 20.8 16.0 10.3 51 5.8 ENE 26 35 14 19 1020.9 1019.0 0.0
22/06:30am 20.0 16.2 9.9 52 5.5 ENE 20 28 11 15 1020.5 1018.6 0.0
22/06:00am 19.4 16.2 9.9 54 5.1 E 17 22 9 12 1020.4 1018.5 0.0
22/05:30am 19.6 15.9 9.5 52 5.4 E 19 26 10 14 1019.9 1018.0 0.0
22/05:00am 19.9 16.7 9.8 52 5.5 E 17 24 9 13 1019.8 1017.9 0.0
22/04:30am 20.4 17.0 10.5 53 5.5 E 19 24 10 13 1019.4 1017.5 0.0
22/04:00am 20.5 17.8 11.7 57 4.9 E 17 20 9 11 1019.3 1017.4 0.0
22/03:30am 21.0 18.0 12.4 58 4.9 ENE 20 28 11 15 1019.2 1017.3 0.0
22/03:00am 21.3 17.8 12.2 56 5.2 ENE 22 37 12 20 1019.3 1017.4 0.0
22/02:30am 21.6 18.5 11.6 53 5.7 ENE 19 24 10 13 1019.2 1017.3 0.0
22/02:00am 22.0 18.6 11.1 50 6.1 ENE 20 30 11 16 1019.5 1017.6 0.0
22/01:30am 22.5 18.9 10.6 47 6.6 ENE 20 28 11 15 1019.6 1017.7 0.0
22/01:00am 23.2 18.0 10.3 44 7.2 NE 28 35 15 19 1019.7 1017.8 0.0
22/12:30am 23.9 19.5 9.1 39 8.1 NE 22 33 12 18 1019.5 1017.6 0.0
22/12:00am 24.6 20.1 6.8 32 9.4 ENE 20 26 11 14 1019.6 1017.7 0.0
 
Date/Time
EST
Temp
°C
App
Temp
°C
Dew
Point
Rel
Hum
%
Delta-T
°C
Wind Press
QNH
hPa
Press
MSL
hPa
Rain
since 9 am
mm
Dir
 
Spd
km/h
Gust
km/h
Spd
kts
Gust
kts
21/11:30pm 23.2 19.7 5.6 32 9.0 ESE 13 15 7 8 1019.7 1017.8 0.0
21/11:00pm 24.0 20.5 5.4 30 9.5 ESE 13 15 7 8 1019.7 1017.8 0.0
21/10:30pm 25.0 21.2 5.7 29 10.0 ESE 15 20 8 11 1019.8 1017.9 0.0
21/10:00pm 25.8 21.6 5.9 28 10.4 ESE 17 22 9 12 1019.8 1017.9 0.0
21/09:30pm 25.6 21.3 5.2 27 10.5 ESE 17 20 9 11 1019.5 1017.6 0.0
21/09:00pm 25.8 21.9 5.4 27 10.6 ESE 15 19 8 10 1019.1 1017.2 0.0
21/08:30pm 26.8 22.6 5.7 26 11.1 ESE 17 20 9 11 1018.8 1016.9 0.0
21/08:00pm 27.5 22.8 5.1 24 11.6 ESE 19 24 10 13 1018.5 1016.6 0.0
21/07:30pm 28.4 23.4 4.6 22 12.4 E 20 30 11 16 1018.2 1016.3 0.0
21/07:00pm 28.8 23.4 4.3 21 12.7 E 22 32 12 17 1017.7 1015.8 0.0
21/06:30pm 29.5 23.3 4.2 20 13.1 E 26 33 14 18 1017.3 1015.3 0.0
21/06:00pm 30.3 24.3 3.4 18 13.8 E 24 35 13 19 1017.1 1015.1 0.0
21/05:30pm 31.0 23.7 2.3 16 14.6 E 30 41 16 22 1016.9 1014.9 0.0
21/05:00pm 31.8 25.6 2.0 15 15.1 E 24 39 13 21 1016.5 1014.6 0.0
21/04:30pm 31.7 24.0 -0.1 13 15.6 E 30 43 16 23 1016.3 1014.4 0.0
21/04:00pm 32.4 25.9 0.5 13 15.8 ESE 24 35 13 19 1016.3 1014.4 0.0
21/03:30pm 32.0 24.7 0.2 13 15.7 E 28 39 15 21 1016.4 1014.5 0.0
21/03:07pm 32.7 25.1 0.7 13 16.0 E 30 48 16 26 1016.6 1014.7 0.0
21/03:00pm 32.3 25.1 0.4 13 15.8 E 28 39 15 21 1016.8 1014.8 0.0
21/02:37pm 32.3 24.7 0.4 13 15.8 ESE 30 48 16 26 1017.1 1015.1 0.0
21/02:30pm 32.6 25.4 0.6 13 15.9 E 28 39 15 21 1017.0 1015.0 0.0
21/02:00pm 31.8 24.5 0.0 13 15.6 E 28 39 15 21 1017.4 1015.4 0.0
21/01:30pm 32.0 24.1 1.2 14 15.4 E 32 44 17 24 1018.0 1016.1 0.0
21/01:03pm 31.8 24.6 1.0 14 15.4 E 28 46 15 25 1018.5 1016.6 0.0
21/01:00pm 31.3 24.8 0.6 14 15.1 E 24 46 13 25 1018.5 1016.6 0.0
21/12:30pm 30.3 22.3 1.7 16 14.3 E 33 50 18 27 1019.3 1017.4 0.0
21/12:21pm 30.7 23.0 0.2 14 14.9 ENE 30 50 16 27 1019.2 1017.3 0.0
21/12:00pm 30.2 22.1 -0.2 14 14.7 ESE 32 41 17 22 1019.9 1018.0 0.0
21/11:30am 29.4 21.4 0.1 15 14.2 E 32 44 17 24 1020.4 1018.5 0.0
21/11:00am 28.4 20.4 0.2 16 13.5 E 32 43 17 23 1020.7 1018.8 0.0
21/10:30am 28.1 20.2 2.3 19 12.8 E 33 46 18 25 1021.0 1019.1 0.0
21/10:00am 27.1 19.9 4.8 24 11.5 E 32 46 17 25 1021.4 1019.5 0.0
21/09:42am 27.0 20.2 5.3 25 11.3 E 30 56 16 30 1021.4 1019.5 0.0
21/09:30am 26.1 18.9 5.1 26 10.8 E 32 41 17 22 1021.6 1019.7 0.0
21/09:00am 24.7 17.3 5.0 28 10.0 E 33 46 18 25 1021.3 1019.4 0.0
21/08:30am 23.9 18.0 7.5 35 8.7 ENE 28 39 15 21 1021.5 1019.6 0.0
21/08:00am 22.6 18.4 8.3 40 7.6 ENE 20 28 11 15 1021.6 1019.7 0.0
21/07:30am 21.4 18.0 9.0 45 6.7 NE 17 22 9 12 1021.2 1019.3 0.0
21/07:00am 20.8 17.4 9.1 47 6.3 ENE 17 22 9 12 1020.8 1018.9 0.0
21/06:30am 19.2 17.1 9.9 55 5.0 ESE 11 13 6 7 1020.4 1018.5 0.0
21/06:00am 17.5 16.1 9.4 59 4.3 E 7 11 4 6 1019.9 1018.0 0.0
21/05:30am 18.5 16.9 10.1 58 4.5 E 9 13 5 7 1019.5 1017.6 0.0
21/05:00am 19.0 17.7 10.0 56 4.9 ENE 7 11 4 6 1019.2 1017.3 0.0
21/04:30am 19.5 17.6 10.5 56 4.9 E 11 13 6 7 1018.9 1017.0 0.0
21/04:00am 20.1 18.0 11.1 56 5.0 ENE 13 17 7 9 1018.9 1017.0 0.0
21/03:30am 20.6 18.5 11.2 55 5.3 ENE 13 20 7 11 1018.7 1016.8 0.0
21/03:00am 20.7 18.5 10.8 53 5.5 ENE 13 17 7 9 1018.8 1016.9 0.0
21/02:30am 21.4 18.9 10.9 51 5.9 ENE 15 20 8 11 1018.8 1016.9 0.0
21/02:00am 21.8 18.7 10.3 48 6.3 NE 17 22 9 12 1018.8 1016.9 0.0
21/01:30am 22.1 18.0 7.9 40 7.5 ENE 19 24 10 13 1019.1 1017.2 0.0
21/01:00am 22.9 17.9 4.4 30 9.2 ENE 20 26 11 14 1019.3 1017.4 0.0
21/12:30am 23.4 18.6 0.5 22 10.7 E 15 17 8 9 1019.2 1017.3 0.0
21/12:00am 24.8 19.2 1.0 21 11.3 E 20 26 11 14 1019.3 1017.4 0.0
 
Date/Time
EST
Temp
°C
App
Temp
°C
Dew
Point
Rel
Hum
%
Delta-T
°C
Wind Press
QNH
hPa
Press
MSL
hPa
Rain
since 9 am
mm
Dir
 
Spd
km/h
Gust
km/h
Spd
kts
Gust
kts
20/11:30pm 24.8 19.3 1.7 22 11.1 ESE 20 30 11 16 1019.1 1017.2 0.0
20/11:00pm 25.0 19.7 3.0 24 10.8 ESE 20 26 11 14 1019.2 1017.3 0.0
20/10:30pm 24.3 19.6 3.0 25 10.5 ESE 17 19 9 10 1019.3 1017.4 0.0
20/10:00pm 24.7 19.9 2.8 24 10.7 ESE 17 19 9 10 1019.4 1017.5 0.0
20/09:30pm 25.5 20.8 2.9 23 11.2 ESE 17 20 9 11 1019.4 1017.5 0.0
20/09:00pm 26.0 21.2 2.7 22 11.5 ESE 17 20 9 11 1019.0 1017.1 0.0
20/08:30pm 26.8 22.0 2.7 21 12.0 SE 17 20 9 11 1018.6 1016.7 0.0
20/08:00pm 26.6 21.9 1.1 19 12.3 SE 15 20 8 11 1018.3 1016.4 0.0
20/07:30pm 27.9 22.8 0.6 17 13.2 ESE 17 22 9 12 1017.9 1016.0 0.0
20/07:00pm 28.8 23.3 0.5 16 13.7 ESE 19 24 10 13 1017.4 1015.4 0.0
20/06:30pm 29.6 23.9 -0.7 14 14.5 ESE 19 28 10 15 1017.0 1015.0 0.0
20/06:00pm 30.6 23.4 -2.0 12 15.3 E 26 35 14 19 1016.5 1014.6 0.0
20/05:30pm 31.6 26.1 -2.4 11 16.0 ESE 17 22 9 12 1016.2 1014.3 0.0
20/05:00pm 32.1 25.7 -2.0 11 16.2 E 22 33 12 18 1015.9 1014.0 0.0
20/04:30pm 32.6 26.0 -2.9 10 16.7 E 22 35 12 19 1015.7 1013.8 0.0
20/04:08pm 32.2 24.6 -2.0 11 16.3 E 28 46 15 25 1015.7 1013.8 0.0
20/04:00pm 32.5 26.7 -1.7 11 16.4 E 19 26 10 14 1015.6 1013.7 0.0
20/03:30pm 32.8 26.8 -1.5 11 16.5 E 20 37 11 20 1015.8 1013.9 0.0
20/03:00pm 32.0 24.0 -2.1 11 16.2 ENE 30 41 16 22 1016.0 1014.1 0.0
20/02:30pm 32.3 25.0 -3.2 10 16.6 E 26 37 14 20 1016.5 1014.6 0.0
20/02:00pm 32.5 24.0 -3.0 10 16.6 E 32 43 17 23 1016.8 1014.8 0.0

Other Formats:

Comma delimited format used in spreadsheet applications
http://www.bom.gov.au/fwo/IDQ60801/IDQ60801.94343.axf

JavaScript Object Notation format (JSON) in row-major order
http://www.bom.gov.au/fwo/IDQ60801/IDQ60801.94343.json